sensor_id;sensor_type;location;lat;lon;timestamp;P1;durP1;ratioP1;P2;durP2;ratioP2
13927;SDS011;7036;50.834;4.718;2023-02-12T00:01:57;19.20;;;17.10;;
13927;SDS011;7036;50.834;4.718;2023-02-12T00:04:24;19.70;;;16.10;;
13927;SDS011;7036;50.834;4.718;2023-02-12T00:06:52;17.02;;;15.20;;
13927;SDS011;7036;50.834;4.718;2023-02-12T00:09:19;17.92;;;15.90;;
13927;SDS011;7036;50.834;4.718;2023-02-12T00:11:46;19.42;;;16.42;;
13927;SDS011;7036;50.834;4.718;2023-02-12T00:14:13;16.75;;;15.05;;
13927;SDS011;7036;50.834;4.718;2023-02-12T00:16:41;17.52;;;15.38;;
13927;SDS011;7036;50.834;4.718;2023-02-12T00:19:08;16.58;;;14.70;;
13927;SDS011;7036;50.834;4.718;2023-02-12T00:21:35;17.52;;;14.27;;
13927;SDS011;7036;50.834;4.718;2023-02-12T00:24:02;18.35;;;14.80;;
13927;SDS011;7036;50.834;4.718;2023-02-12T00:26:30;16.92;;;14.35;;
13927;SDS011;7036;50.834;4.718;2023-02-12T00:28:57;17.13;;;14.68;;
13927;SDS011;7036;50.834;4.718;2023-02-12T00:31:25;18.25;;;15.23;;
13927;SDS011;7036;50.834;4.718;2023-02-12T00:33:51;17.75;;;15.18;;
13927;SDS011;7036;50.834;4.718;2023-02-12T00:36:20;17.27;;;15.18;;
13927;SDS011;7036;50.834;4.718;2023-02-12T00:38:46;16.42;;;14.48;;
13927;SDS011;7036;50.834;4.718;2023-02-12T00:41:13;16.10;;;13.77;;
13927;SDS011;7036;50.834;4.718;2023-02-12T00:43:40;15.80;;;14.30;;
13927;SDS011;7036;50.834;4.718;2023-02-12T00:46:08;18.60;;;15.15;;
13927;SDS011;7036;50.834;4.718;2023-02-12T00:48:35;15.60;;;14.07;;
13927;SDS011;7036;50.834;4.718;2023-02-12T00:51:02;17.25;;;14.00;;
13927;SDS011;7036;50.834;4.718;2023-02-12T00:53:30;17.73;;;15.02;;
13927;SDS011;7036;50.834;4.718;2023-02-12T00:55:57;15.00;;;13.50;;
13927;SDS011;7036;50.834;4.718;2023-02-12T00:58:24;17.30;;;14.90;;
13927;SDS011;7036;50.834;4.718;2023-02-12T01:00:52;17.70;;;15.10;;
13927;SDS011;7036;50.834;4.718;2023-02-12T01:03:19;16.65;;;14.95;;
13927;SDS011;7036;50.834;4.718;2023-02-12T01:05:45;16.90;;;15.10;;
13927;SDS011;7036;50.834;4.718;2023-02-12T01:08:13;17.10;;;15.02;;
13927;SDS011;7036;50.834;4.718;2023-02-12T01:10:40;17.30;;;14.48;;
13927;SDS011;7036;50.834;4.718;2023-02-12T01:13:10;17.23;;;14.23;;
13927;SDS011;7036;50.834;4.718;2023-02-12T01:15:35;15.57;;;14.02;;
13927;SDS011;7036;50.834;4.718;2023-02-12T01:18:02;16.35;;;14.65;;
13927;SDS011;7036;50.834;4.718;2023-02-12T01:20:30;15.73;;;14.05;;
13927;SDS011;7036;50.834;4.718;2023-02-12T01:22:57;15.27;;;13.68;;
13927;SDS011;7036;50.834;4.718;2023-02-12T01:25:24;15.32;;;13.82;;
13927;SDS011;7036;50.834;4.718;2023-02-12T01:27:52;16.02;;;13.82;;
13927;SDS011;7036;50.834;4.718;2023-02-12T01:30:19;15.27;;;13.73;;
13927;SDS011;7036;50.834;4.718;2023-02-12T01:32:46;16.75;;;14.32;;
13927;SDS011;7036;50.834;4.718;2023-02-12T01:35:13;14.65;;;13.25;;
13927;SDS011;7036;50.834;4.718;2023-02-12T01:37:40;15.27;;;13.68;;
13927;SDS011;7036;50.834;4.718;2023-02-12T01:40:08;16.25;;;13.65;;
13927;SDS011;7036;50.834;4.718;2023-02-12T01:42:35;14.73;;;13.23;;
13927;SDS011;7036;50.834;4.718;2023-02-12T01:47:40;13.60;;;12.30;;
13927;SDS011;7036;50.834;4.718;2023-02-12T01:50:07;14.47;;;12.97;;
13927;SDS011;7036;50.834;4.718;2023-02-12T01:52:34;14.80;;;13.20;;
13927;SDS011;7036;50.834;4.718;2023-02-12T01:55:01;14.70;;;13.07;;
13927;SDS011;7036;50.834;4.718;2023-02-12T01:57:28;13.88;;;12.48;;
13927;SDS011;7036;50.834;4.718;2023-02-12T01:59:55;15.23;;;13.68;;
13927;SDS011;7036;50.834;4.718;2023-02-12T02:02:22;14.18;;;12.60;;
13927;SDS011;7036;50.834;4.718;2023-02-12T02:04:50;14.57;;;13.07;;
13927;SDS011;7036;50.834;4.718;2023-02-12T02:07:17;16.25;;;12.85;;
13927;SDS011;7036;50.834;4.718;2023-02-12T02:09:44;14.05;;;12.75;;
13927;SDS011;7036;50.834;4.718;2023-02-12T02:12:11;14.70;;;12.23;;
13927;SDS011;7036;50.834;4.718;2023-02-12T02:14:57;14.30;;;12.80;;
13927;SDS011;7036;50.834;4.718;2023-02-12T02:25:53;14.43;;;12.93;;
13927;SDS011;7036;50.834;4.718;2023-02-12T02:32:05;13.07;;;11.80;;
13927;SDS011;7036;50.834;4.718;2023-02-12T02:34:01;15.07;;;12.80;;
13927;SDS011;7036;50.834;4.718;2023-02-12T02:42:00;12.77;;;11.57;;
13927;SDS011;7036;50.834;4.718;2023-02-12T02:44:33;13.73;;;12.33;;
13927;SDS011;7036;50.834;4.718;2023-02-12T02:46:58;14.57;;;12.37;;
13927;SDS011;7036;50.834;4.718;2023-02-12T02:49:31;13.02;;;11.77;;
13927;SDS011;7036;50.834;4.718;2023-02-12T02:51:56;14.93;;;12.97;;
13927;SDS011;7036;50.834;4.718;2023-02-12T02:54:26;13.95;;;12.43;;
13927;SDS011;7036;50.834;4.718;2023-02-12T02:56:51;13.55;;;12.25;;
13927;SDS011;7036;50.834;4.718;2023-02-12T02:59:18;14.30;;;12.00;;
13927;SDS011;7036;50.834;4.718;2023-02-12T03:01:51;13.67;;;12.33;;
13927;SDS011;7036;50.834;4.718;2023-02-12T03:04:39;13.87;;;12.30;;
13927;SDS011;7036;50.834;4.718;2023-02-12T03:07:05;12.77;;;11.47;;
13927;SDS011;7036;50.834;4.718;2023-02-12T03:09:54;13.40;;;12.02;;
13927;SDS011;7036;50.834;4.718;2023-02-12T03:12:25;14.60;;;12.63;;
13927;SDS011;7036;50.834;4.718;2023-02-12T03:14:51;13.70;;;12.30;;
13927;SDS011;7036;50.834;4.718;2023-02-12T03:17:21;13.20;;;11.48;;
13927;SDS011;7036;50.834;4.718;2023-02-12T03:19:49;11.63;;;10.47;;
13927;SDS011;7036;50.834;4.718;2023-02-12T03:22:17;13.23;;;11.90;;
13927;SDS011;7036;50.834;4.718;2023-02-12T03:24:44;12.77;;;11.40;;
13927;SDS011;7036;50.834;4.718;2023-02-12T03:27:19;12.75;;;10.73;;
13927;SDS011;7036;50.834;4.718;2023-02-12T03:29:53;12.17;;;10.90;;
13927;SDS011;7036;50.834;4.718;2023-02-12T03:32:30;12.77;;;11.50;;
13927;SDS011;7036;50.834;4.718;2023-02-12T03:40:29;12.93;;;11.63;;
13927;SDS011;7036;50.834;4.718;2023-02-12T03:43:01;14.87;;;12.17;;
13927;SDS011;7036;50.834;4.718;2023-02-12T03:50:57;12.90;;;11.43;;
13927;SDS011;7036;50.834;4.718;2023-02-12T03:53:20;12.43;;;11.13;;
13927;SDS011;7036;50.834;4.718;2023-02-12T03:55:48;12.57;;;11.25;;
13927;SDS011;7036;50.834;4.718;2023-02-12T03:58:16;12.00;;;10.88;;
13927;SDS011;7036;50.834;4.718;2023-02-12T04:00:42;11.68;;;10.70;;
13927;SDS011;7036;50.834;4.718;2023-02-12T04:03:09;12.38;;;11.18;;
13927;SDS011;7036;50.834;4.718;2023-02-12T04:05:36;12.68;;;11.35;;
13927;SDS011;7036;50.834;4.718;2023-02-12T04:08:05;11.63;;;10.63;;
13927;SDS011;7036;50.834;4.718;2023-02-12T04:13:18;13.73;;;12.17;;
13927;SDS011;7036;50.834;4.718;2023-02-12T04:24:02;11.50;;;10.30;;
13927;SDS011;7036;50.834;4.718;2023-02-12T04:27:01;12.20;;;10.87;;
13927;SDS011;7036;50.834;4.718;2023-02-12T04:29:34;11.87;;;10.67;;
13927;SDS011;7036;50.834;4.718;2023-02-12T04:37:18;12.73;;;11.43;;
13927;SDS011;7036;50.834;4.718;2023-02-12T04:39:46;12.57;;;11.27;;
13927;SDS011;7036;50.834;4.718;2023-02-12T04:42:13;13.35;;;11.43;;
13927;SDS011;7036;50.834;4.718;2023-02-12T04:44:42;11.18;;;10.18;;
13927;SDS011;7036;50.834;4.718;2023-02-12T04:47:09;11.57;;;10.43;;
13927;SDS011;7036;50.834;4.718;2023-02-12T04:49:34;12.85;;;11.40;;
13927;SDS011;7036;50.834;4.718;2023-02-12T04:52:02;12.10;;;10.88;;
13927;SDS011;7036;50.834;4.718;2023-02-12T04:54:29;13.70;;;11.52;;
13927;SDS011;7036;50.834;4.718;2023-02-12T04:56:56;11.98;;;10.80;;
13927;SDS011;7036;50.834;4.718;2023-02-12T04:59:23;12.93;;;11.63;;
13927;SDS011;7036;50.834;4.718;2023-02-12T05:01:50;13.27;;;11.38;;
13927;SDS011;7036;50.834;4.718;2023-02-12T05:04:18;12.88;;;11.50;;
13927;SDS011;7036;50.834;4.718;2023-02-12T05:06:45;13.32;;;11.55;;
13927;SDS011;7036;50.834;4.718;2023-02-12T05:09:13;12.52;;;11.23;;
13927;SDS011;7036;50.834;4.718;2023-02-12T05:11:39;11.50;;;10.32;;
13927;SDS011;7036;50.834;4.718;2023-02-12T05:14:06;12.43;;;11.13;;
13927;SDS011;7036;50.834;4.718;2023-02-12T05:16:34;13.23;;;12.02;;
13927;SDS011;7036;50.834;4.718;2023-02-12T05:19:01;11.18;;;10.05;;
13927;SDS011;7036;50.834;4.718;2023-02-12T05:21:28;11.32;;;10.10;;
13927;SDS011;7036;50.834;4.718;2023-02-12T05:23:55;11.43;;;10.43;;
13927;SDS011;7036;50.834;4.718;2023-02-12T05:26:23;11.50;;;10.07;;
13927;SDS011;7036;50.834;4.718;2023-02-12T05:28:50;11.85;;;10.77;;
13927;SDS011;7036;50.834;4.718;2023-02-12T05:31:17;10.70;;;9.65;;
13927;SDS011;7036;50.834;4.718;2023-02-12T05:33:45;13.02;;;11.73;;
13927;SDS011;7036;50.834;4.718;2023-02-12T05:36:13;12.27;;;11.00;;
13927;SDS011;7036;50.834;4.718;2023-02-12T05:38:38;12.35;;;11.15;;
13927;SDS011;7036;50.834;4.718;2023-02-12T05:41:07;12.00;;;10.65;;
13927;SDS011;7036;50.834;4.718;2023-02-12T05:43:33;11.82;;;10.63;;
13927;SDS011;7036;50.834;4.718;2023-02-12T05:46:01;11.80;;;10.60;;
13927;SDS011;7036;50.834;4.718;2023-02-12T05:48:27;12.48;;;11.18;;
13927;SDS011;7036;50.834;4.718;2023-02-12T05:51:17;11.60;;;10.50;;
13927;SDS011;7036;50.834;4.718;2023-02-12T05:53:28;11.33;;;10.23;;
13927;SDS011;7036;50.834;4.718;2023-02-12T05:56:05;11.52;;;10.43;;
13927;SDS011;7036;50.834;4.718;2023-02-12T05:58:23;12.07;;;10.90;;
13927;SDS011;7036;50.834;4.718;2023-02-12T06:00:50;12.63;;;11.25;;
13927;SDS011;7036;50.834;4.718;2023-02-12T06:03:17;11.73;;;10.63;;
13927;SDS011;7036;50.834;4.718;2023-02-12T06:05:48;12.57;;;10.50;;
13927;SDS011;7036;50.834;4.718;2023-02-12T06:08:11;14.05;;;10.85;;
13927;SDS011;7036;50.834;4.718;2023-02-12T06:10:38;11.77;;;10.68;;
13927;SDS011;7036;50.834;4.718;2023-02-12T06:13:06;11.90;;;10.73;;
13927;SDS011;7036;50.834;4.718;2023-02-12T06:15:35;11.95;;;10.75;;
13927;SDS011;7036;50.834;4.718;2023-02-12T06:18:00;10.43;;;9.32;;
13927;SDS011;7036;50.834;4.718;2023-02-12T06:20:28;10.15;;;9.15;;
13927;SDS011;7036;50.834;4.718;2023-02-12T06:22:56;10.00;;;9.10;;
13927;SDS011;7036;50.834;4.718;2023-02-12T06:25:24;9.25;;;8.27;;
13927;SDS011;7036;50.834;4.718;2023-02-12T06:27:52;9.88;;;8.93;;
13927;SDS011;7036;50.834;4.718;2023-02-12T06:30:20;9.23;;;8.43;;
13927;SDS011;7036;50.834;4.718;2023-02-12T06:32:48;9.45;;;8.38;;
13927;SDS011;7036;50.834;4.718;2023-02-12T06:35:15;9.43;;;8.45;;
13927;SDS011;7036;50.834;4.718;2023-02-12T06:37:43;9.10;;;8.20;;
13927;SDS011;7036;50.834;4.718;2023-02-12T06:40:11;9.77;;;8.88;;
13927;SDS011;7036;50.834;4.718;2023-02-12T06:42:38;10.43;;;8.48;;
13927;SDS011;7036;50.834;4.718;2023-02-12T06:45:06;9.35;;;8.55;;
13927;SDS011;7036;50.834;4.718;2023-02-12T06:47:34;10.23;;;8.57;;
13927;SDS011;7036;50.834;4.718;2023-02-12T06:50:00;8.80;;;7.90;;
13927;SDS011;7036;50.834;4.718;2023-02-12T06:52:28;13.90;;;9.10;;
13927;SDS011;7036;50.834;4.718;2023-02-12T06:54:56;14.18;;;9.55;;
13927;SDS011;7036;50.834;4.718;2023-02-12T06:57:24;11.40;;;9.00;;
13927;SDS011;7036;50.834;4.718;2023-02-12T06:59:51;12.15;;;10.98;;
13927;SDS011;7036;50.834;4.718;2023-02-12T07:02:19;12.85;;;10.88;;
13927;SDS011;7036;50.834;4.718;2023-02-12T07:04:46;13.98;;;12.55;;
13927;SDS011;7036;50.834;4.718;2023-02-12T07:07:13;13.40;;;12.10;;
13927;SDS011;7036;50.834;4.718;2023-02-12T07:09:40;14.00;;;12.43;;
13927;SDS011;7036;50.834;4.718;2023-02-12T07:12:08;13.48;;;12.13;;
13927;SDS011;7036;50.834;4.718;2023-02-12T07:14:35;15.73;;;14.27;;
13927;SDS011;7036;50.834;4.718;2023-02-12T07:17:03;16.15;;;12.43;;
13927;SDS011;7036;50.834;4.718;2023-02-12T07:19:30;15.00;;;13.47;;
13927;SDS011;7036;50.834;4.718;2023-02-12T07:21:57;15.55;;;13.20;;
13927;SDS011;7036;50.834;4.718;2023-02-12T07:24:24;15.18;;;13.63;;
13927;SDS011;7036;50.834;4.718;2023-02-12T07:26:52;15.02;;;12.65;;
13927;SDS011;7036;50.834;4.718;2023-02-12T07:29:19;16.85;;;14.05;;
13927;SDS011;7036;50.834;4.718;2023-02-12T07:31:46;15.77;;;13.57;;
13927;SDS011;7036;50.834;4.718;2023-02-12T07:34:14;24.60;;;14.25;;
13927;SDS011;7036;50.834;4.718;2023-02-12T07:36:41;15.73;;;14.03;;
13927;SDS011;7036;50.834;4.718;2023-02-12T07:39:10;17.92;;;13.80;;
13927;SDS011;7036;50.834;4.718;2023-02-12T07:41:36;17.35;;;14.15;;
13927;SDS011;7036;50.834;4.718;2023-02-12T07:44:04;14.60;;;13.25;;
13927;SDS011;7036;50.834;4.718;2023-02-12T07:46:31;14.82;;;13.23;;
13927;SDS011;7036;50.834;4.718;2023-02-12T07:48:58;16.15;;;13.18;;
13927;SDS011;7036;50.834;4.718;2023-02-12T07:51:25;13.85;;;12.50;;
13927;SDS011;7036;50.834;4.718;2023-02-12T07:53:53;14.70;;;12.70;;
13927;SDS011;7036;50.834;4.718;2023-02-12T07:56:21;13.83;;;12.60;;
13927;SDS011;7036;50.834;4.718;2023-02-12T07:58:48;13.10;;;11.75;;
13927;SDS011;7036;50.834;4.718;2023-02-12T08:01:20;14.60;;;13.10;;
13927;SDS011;7036;50.834;4.718;2023-02-12T08:03:46;14.50;;;13.00;;
13927;SDS011;7036;50.834;4.718;2023-02-12T08:06:19;13.47;;;12.00;;
13927;SDS011;7036;50.834;4.718;2023-02-12T08:08:45;14.47;;;13.07;;
13927;SDS011;7036;50.834;4.718;2023-02-12T08:11:13;13.70;;;12.50;;
13927;SDS011;7036;50.834;4.718;2023-02-12T08:13:40;14.93;;;12.13;;
13927;SDS011;7036;50.834;4.718;2023-02-12T08:16:08;12.43;;;11.23;;
13927;SDS011;7036;50.834;4.718;2023-02-12T08:18:34;13.77;;;12.40;;
13927;SDS011;7036;50.834;4.718;2023-02-12T08:21:02;13.90;;;12.60;;
13927;SDS011;7036;50.834;4.718;2023-02-12T08:23:29;12.65;;;11.35;;
13927;SDS011;7036;50.834;4.718;2023-02-12T08:26:05;13.70;;;12.20;;
13927;SDS011;7036;50.834;4.718;2023-02-12T08:28:36;13.53;;;10.93;;
13927;SDS011;7036;50.834;4.718;2023-02-12T08:31:03;13.70;;;11.00;;
13927;SDS011;7036;50.834;4.718;2023-02-12T08:33:29;13.98;;;11.48;;
13927;SDS011;7036;50.834;4.718;2023-02-12T08:36:09;12.27;;;11.00;;
13927;SDS011;7036;50.834;4.718;2023-02-12T08:38:33;12.87;;;11.17;;
13927;SDS011;7036;50.834;4.718;2023-02-12T08:41:01;13.00;;;11.45;;
13927;SDS011;7036;50.834;4.718;2023-02-12T08:43:27;13.15;;;11.13;;
13927;SDS011;7036;50.834;4.718;2023-02-12T08:45:59;16.15;;;11.80;;
13927;SDS011;7036;50.834;4.718;2023-02-12T08:48:22;14.45;;;11.88;;
13927;SDS011;7036;50.834;4.718;2023-02-12T08:50:49;12.27;;;10.85;;
13927;SDS011;7036;50.834;4.718;2023-02-12T08:53:16;11.93;;;10.73;;
13927;SDS011;7036;50.834;4.718;2023-02-12T08:55:47;15.07;;;11.10;;
13927;SDS011;7036;50.834;4.718;2023-02-12T08:58:14;13.83;;;11.47;;
13927;SDS011;7036;50.834;4.718;2023-02-12T09:00:41;23.60;;;12.20;;
13927;SDS011;7036;50.834;4.718;2023-02-12T09:03:08;12.75;;;11.52;;
13927;SDS011;7036;50.834;4.718;2023-02-12T09:05:39;14.25;;;11.65;;
13927;SDS011;7036;50.834;4.718;2023-02-12T09:08:05;13.30;;;11.97;;
13927;SDS011;7036;50.834;4.718;2023-02-12T09:10:33;13.70;;;12.25;;
13927;SDS011;7036;50.834;4.718;2023-02-12T09:13:00;13.00;;;11.80;;
13927;SDS011;7036;50.834;4.718;2023-02-12T09:15:27;13.95;;;11.60;;
13927;SDS011;7036;50.834;4.718;2023-02-12T09:17:54;14.73;;;11.98;;
13927;SDS011;7036;50.834;4.718;2023-02-12T09:20:21;15.50;;;12.07;;
13927;SDS011;7036;50.834;4.718;2023-02-12T09:22:50;13.48;;;12.07;;
13927;SDS011;7036;50.834;4.718;2023-02-12T09:25:16;13.23;;;11.83;;
13927;SDS011;7036;50.834;4.718;2023-02-12T09:27:45;14.20;;;12.68;;
13927;SDS011;7036;50.834;4.718;2023-02-12T09:30:11;14.37;;;11.93;;
13927;SDS011;7036;50.834;4.718;2023-02-12T09:32:38;15.25;;;12.40;;
13927;SDS011;7036;50.834;4.718;2023-02-12T09:35:06;13.48;;;12.10;;
13927;SDS011;7036;50.834;4.718;2023-02-12T09:37:33;13.98;;;11.90;;
13927;SDS011;7036;50.834;4.718;2023-02-12T09:40:00;15.65;;;12.05;;
13927;SDS011;7036;50.834;4.718;2023-02-12T09:42:48;15.15;;;12.30;;
13927;SDS011;7036;50.834;4.718;2023-02-12T09:45:29;15.57;;;12.07;;
13927;SDS011;7036;50.834;4.718;2023-02-12T09:47:58;14.37;;;11.83;;
13927;SDS011;7036;50.834;4.718;2023-02-12T09:53:14;12.87;;;11.57;;
13927;SDS011;7036;50.834;4.718;2023-02-12T09:55:40;14.38;;;12.35;;
13927;SDS011;7036;50.834;4.718;2023-02-12T09:58:14;14.10;;;12.60;;
13927;SDS011;7036;50.834;4.718;2023-02-12T10:00:41;14.87;;;11.90;;
13927;SDS011;7036;50.834;4.718;2023-02-12T10:03:10;14.13;;;12.30;;
13927;SDS011;7036;50.834;4.718;2023-02-12T10:05:37;15.60;;;13.05;;
13927;SDS011;7036;50.834;4.718;2023-02-12T10:08:30;17.37;;;13.17;;
13927;SDS011;7036;50.834;4.718;2023-02-12T10:10:56;14.17;;;12.23;;
13927;SDS011;7036;50.834;4.718;2023-02-12T10:16:23;17.33;;;12.27;;
13927;SDS011;7036;50.834;4.718;2023-02-12T10:18:50;13.67;;;12.33;;
13927;SDS011;7036;50.834;4.718;2023-02-12T10:21:34;19.60;;;12.00;;
13927;SDS011;7036;50.834;4.718;2023-02-12T10:26:39;14.10;;;12.60;;
13927;SDS011;7036;50.834;4.718;2023-02-12T10:29:19;15.95;;;12.63;;
13927;SDS011;7036;50.834;4.718;2023-02-12T10:31:51;13.87;;;12.43;;
13927;SDS011;7036;50.834;4.718;2023-02-12T10:34:26;14.90;;;12.30;;
13927;SDS011;7036;50.834;4.718;2023-02-12T10:36:53;17.90;;;13.10;;
13927;SDS011;7036;50.834;4.718;2023-02-12T10:39:25;19.55;;;13.35;;
13927;SDS011;7036;50.834;4.718;2023-02-12T10:42:35;14.87;;;12.33;;
13927;SDS011;7036;50.834;4.718;2023-02-12T10:44:16;17.77;;;13.53;;
13927;SDS011;7036;50.834;4.718;2023-02-12T10:46:43;16.40;;;12.25;;
13927;SDS011;7036;50.834;4.718;2023-02-12T10:49:11;17.75;;;12.63;;
13927;SDS011;7036;50.834;4.718;2023-02-12T10:51:42;17.20;;;12.02;;
13927;SDS011;7036;50.834;4.718;2023-02-12T10:57:03;24.17;;;12.17;;
13927;SDS011;7036;50.834;4.718;2023-02-12T10:59:26;17.23;;;12.45;;
13927;SDS011;7036;50.834;4.718;2023-02-12T11:01:53;16.55;;;12.70;;
13927;SDS011;7036;50.834;4.718;2023-02-12T11:04:25;24.65;;;13.38;;
13927;SDS011;7036;50.834;4.718;2023-02-12T11:06:58;20.30;;;13.87;;
13927;SDS011;7036;50.834;4.718;2023-02-12T11:09:28;17.60;;;13.63;;
13927;SDS011;7036;50.834;4.718;2023-02-12T11:11:53;16.67;;;13.30;;
13927;SDS011;7036;50.834;4.718;2023-02-12T11:14:21;23.55;;;14.55;;
13927;SDS011;7036;50.834;4.718;2023-02-12T11:16:52;17.58;;;14.98;;
13927;SDS011;7036;50.834;4.718;2023-02-12T11:19:20;29.00;;;17.63;;
13927;SDS011;7036;50.834;4.718;2023-02-12T11:21:48;31.60;;;16.50;;
13927;SDS011;7036;50.834;4.718;2023-02-12T11:27:19;43.27;;;17.47;;
13927;SDS011;7036;50.834;4.718;2023-02-12T11:29:42;38.03;;;16.67;;
13927;SDS011;7036;50.834;4.718;2023-02-12T11:32:14;29.70;;;17.63;;
13927;SDS011;7036;50.834;4.718;2023-02-12T11:34:36;30.27;;;17.38;;
13927;SDS011;7036;50.834;4.718;2023-02-12T11:37:04;32.50;;;16.85;;
13927;SDS011;7036;50.834;4.718;2023-02-12T11:39:32;42.65;;;18.65;;
13927;SDS011;7036;50.834;4.718;2023-02-12T11:41:59;38.80;;;17.33;;
13927;SDS011;7036;50.834;4.718;2023-02-12T11:44:29;35.20;;;16.83;;
13927;SDS011;7036;50.834;4.718;2023-02-12T11:47:09;33.88;;;16.45;;
13927;SDS011;7036;50.834;4.718;2023-02-12T11:50:17;26.73;;;15.77;;
13927;SDS011;7036;50.834;4.718;2023-02-12T11:52:13;33.10;;;17.23;;
13927;SDS011;7036;50.834;4.718;2023-02-12T11:54:38;37.30;;;15.27;;
13927;SDS011;7036;50.834;4.718;2023-02-12T11:57:01;33.03;;;16.33;;
13927;SDS011;7036;50.834;4.718;2023-02-12T11:59:33;27.65;;;15.95;;
13927;SDS011;7036;50.834;4.718;2023-02-12T12:04:48;32.50;;;15.37;;
13927;SDS011;7036;50.834;4.718;2023-02-12T12:07:17;41.40;;;16.48;;
13927;SDS011;7036;50.834;4.718;2023-02-12T12:12:22;33.07;;;16.87;;
13927;SDS011;7036;50.834;4.718;2023-02-12T12:14:52;34.93;;;15.97;;
13927;SDS011;7036;50.834;4.718;2023-02-12T12:17:18;28.63;;;15.45;;
13927;SDS011;7036;50.834;4.718;2023-02-12T12:20:11;38.80;;;16.57;;
13927;SDS011;7036;50.834;4.718;2023-02-12T12:22:43;33.50;;;16.77;;
13927;SDS011;7036;50.834;4.718;2023-02-12T12:30:58;51.07;;;17.30;;
13927;SDS011;7036;50.834;4.718;2023-02-12T12:33:46;41.97;;;16.77;;
13927;SDS011;7036;50.834;4.718;2023-02-12T12:38:58;32.20;;;17.25;;
13927;SDS011;7036;50.834;4.718;2023-02-12T12:44:19;24.10;;;15.63;;
13927;SDS011;7036;50.834;4.718;2023-02-12T12:46:54;28.07;;;16.07;;
13927;SDS011;7036;50.834;4.718;2023-02-12T12:49:26;28.03;;;16.60;;
13927;SDS011;7036;50.834;4.718;2023-02-12T12:57:27;31.30;;;15.37;;
13927;SDS011;7036;50.834;4.718;2023-02-12T13:10:35;26.53;;;16.20;;
13927;SDS011;7036;50.834;4.718;2023-02-12T13:13:19;27.57;;;14.80;;
13927;SDS011;7036;50.834;4.718;2023-02-12T13:16:14;26.37;;;15.57;;
13927;SDS011;7036;50.834;4.718;2023-02-12T13:21:38;30.53;;;14.80;;
13927;SDS011;7036;50.834;4.718;2023-02-12T13:26:43;28.73;;;15.67;;
13927;SDS011;7036;50.834;4.718;2023-02-12T13:29:14;24.17;;;15.00;;
13927;SDS011;7036;50.834;4.718;2023-02-12T13:31:43;21.03;;;14.43;;
13927;SDS011;7036;50.834;4.718;2023-02-12T13:34:06;29.05;;;15.95;;
13927;SDS011;7036;50.834;4.718;2023-02-12T13:36:35;32.00;;;15.25;;
13927;SDS011;7036;50.834;4.718;2023-02-12T13:42:02;37.57;;;16.97;;
13927;SDS011;7036;50.834;4.718;2023-02-12T13:44:26;41.00;;;17.97;;
13927;SDS011;7036;50.834;4.718;2023-02-12T13:46:55;49.33;;;18.00;;
13927;SDS011;7036;50.834;4.718;2023-02-12T13:52:09;41.67;;;17.87;;
13927;SDS011;7036;50.834;4.718;2023-02-12T13:57:13;40.17;;;17.20;;
13927;SDS011;7036;50.834;4.718;2023-02-12T13:59:40;28.90;;;17.00;;
13927;SDS011;7036;50.834;4.718;2023-02-12T14:05:00;40.13;;;16.27;;
13927;SDS011;7036;50.834;4.718;2023-02-12T14:10:21;37.43;;;17.43;;
13927;SDS011;7036;50.834;4.718;2023-02-12T14:13:07;33.33;;;16.83;;
13927;SDS011;7036;50.834;4.718;2023-02-12T14:15:34;41.17;;;17.57;;
13927;SDS011;7036;50.834;4.718;2023-02-12T14:18:05;42.67;;;18.30;;
13927;SDS011;7036;50.834;4.718;2023-02-12T14:20:36;41.90;;;17.73;;
13927;SDS011;7036;50.834;4.718;2023-02-12T14:28:32;40.90;;;15.43;;
13927;SDS011;7036;50.834;4.718;2023-02-12T14:33:43;31.87;;;16.30;;
13927;SDS011;7036;50.834;4.718;2023-02-12T14:36:14;46.17;;;16.38;;
13927;SDS011;7036;50.834;4.718;2023-02-12T14:41:23;37.85;;;15.90;;
13927;SDS011;7036;50.834;4.718;2023-02-12T14:46:45;38.10;;;15.33;;
13927;SDS011;7036;50.834;4.718;2023-02-12T14:49:23;30.17;;;15.07;;
13927;SDS011;7036;50.834;4.718;2023-02-12T14:52:01;32.17;;;13.83;;
13927;SDS011;7036;50.834;4.718;2023-02-12T14:57:29;40.43;;;16.70;;
13927;SDS011;7036;50.834;4.718;2023-02-12T15:00:01;28.40;;;15.10;;
13927;SDS011;7036;50.834;4.718;2023-02-12T15:02:28;37.17;;;16.83;;
13927;SDS011;7036;50.834;4.718;2023-02-12T15:04:58;40.05;;;14.55;;
13927;SDS011;7036;50.834;4.718;2023-02-12T15:07:28;27.37;;;15.37;;
13927;SDS011;7036;50.834;4.718;2023-02-12T15:10:14;40.23;;;16.30;;
13927;SDS011;7036;50.834;4.718;2023-02-12T15:12:44;28.90;;;15.27;;
13927;SDS011;7036;50.834;4.718;2023-02-12T15:17:55;28.20;;;14.43;;
13927;SDS011;7036;50.834;4.718;2023-02-12T15:20:21;30.23;;;16.00;;
13927;SDS011;7036;50.834;4.718;2023-02-12T15:22:50;30.77;;;14.60;;
13927;SDS011;7036;50.834;4.718;2023-02-12T15:28:15;26.73;;;15.13;;
13927;SDS011;7036;50.834;4.718;2023-02-12T15:30:33;28.80;;;14.70;;
13927;SDS011;7036;50.834;4.718;2023-02-12T15:33:02;23.27;;;13.73;;
13927;SDS011;7036;50.834;4.718;2023-02-12T15:35:30;24.48;;;14.50;;
13927;SDS011;7036;50.834;4.718;2023-02-12T15:37:58;21.70;;;13.77;;
13927;SDS011;7036;50.834;4.718;2023-02-12T15:40:26;27.25;;;14.70;;
13927;SDS011;7036;50.834;4.718;2023-02-12T15:42:56;33.90;;;14.83;;
13927;SDS011;7036;50.834;4.718;2023-02-12T15:45:30;21.33;;;13.37;;
13927;SDS011;7036;50.834;4.718;2023-02-12T15:48:17;28.05;;;14.75;;
13927;SDS011;7036;50.834;4.718;2023-02-12T15:50:27;21.70;;;14.57;;
13927;SDS011;7036;50.834;4.718;2023-02-12T15:52:54;23.92;;;14.18;;
13927;SDS011;7036;50.834;4.718;2023-02-12T15:55:23;26.40;;;14.45;;
13927;SDS011;7036;50.834;4.718;2023-02-12T15:57:50;31.20;;;15.07;;
13927;SDS011;7036;50.834;4.718;2023-02-12T16:00:24;22.60;;;14.60;;
13927;SDS011;7036;50.834;4.718;2023-02-12T16:03:16;19.50;;;13.23;;
13927;SDS011;7036;50.834;4.718;2023-02-12T16:05:32;23.90;;;13.63;;
13927;SDS011;7036;50.834;4.718;2023-02-12T16:07:59;19.58;;;13.85;;
13927;SDS011;7036;50.834;4.718;2023-02-12T16:10:26;16.92;;;13.40;;
13927;SDS011;7036;50.834;4.718;2023-02-12T16:12:54;28.15;;;14.18;;
13927;SDS011;7036;50.834;4.718;2023-02-12T16:15:29;24.23;;;15.65;;
13927;SDS011;7036;50.834;4.718;2023-02-12T16:17:51;19.90;;;13.87;;
13927;SDS011;7036;50.834;4.718;2023-02-12T16:20:22;22.10;;;13.35;;
13927;SDS011;7036;50.834;4.718;2023-02-12T16:22:48;22.87;;;13.00;;
13927;SDS011;7036;50.834;4.718;2023-02-12T16:25:16;21.13;;;13.30;;
13927;SDS011;7036;50.834;4.718;2023-02-12T16:27:52;24.70;;;14.17;;
13927;SDS011;7036;50.834;4.718;2023-02-12T16:30:35;17.80;;;13.50;;
13927;SDS011;7036;50.834;4.718;2023-02-12T16:36:01;23.07;;;14.60;;
13927;SDS011;7036;50.834;4.718;2023-02-12T16:38:43;19.53;;;14.10;;
13927;SDS011;7036;50.834;4.718;2023-02-12T16:43:49;19.87;;;12.80;;
13927;SDS011;7036;50.834;4.718;2023-02-12T16:46:13;25.00;;;14.23;;
13927;SDS011;7036;50.834;4.718;2023-02-12T16:48:41;35.08;;;15.70;;
13927;SDS011;7036;50.834;4.718;2023-02-12T16:53:48;23.87;;;13.60;;
13927;SDS011;7036;50.834;4.718;2023-02-12T16:56:16;22.73;;;14.43;;
13927;SDS011;7036;50.834;4.718;2023-02-12T16:58:49;25.92;;;13.32;;
13927;SDS011;7036;50.834;4.718;2023-02-12T17:01:16;31.13;;;14.30;;
13927;SDS011;7036;50.834;4.718;2023-02-12T17:03:42;20.65;;;14.07;;
13927;SDS011;7036;50.834;4.718;2023-02-12T17:06:09;18.75;;;13.77;;
13927;SDS011;7036;50.834;4.718;2023-02-12T17:08:37;25.58;;;14.80;;
13927;SDS011;7036;50.834;4.718;2023-02-12T17:11:05;28.48;;;15.00;;